createdAt,value
2022-11-27T00:01:50.419Z,36.60
2022-11-27T00:04:52.650Z,36.20
2022-11-27T00:07:54.865Z,34.25
2022-11-27T00:10:57.176Z,34.15
2022-11-27T00:13:59.770Z,34.40
2022-11-27T00:17:01.981Z,34.93
2022-11-27T00:20:04.781Z,33.50
2022-11-27T00:23:06.957Z,32.25
2022-11-27T00:26:09.486Z,32.13
2022-11-27T00:29:11.758Z,30.73
2022-11-27T00:32:14.020Z,31.20
2022-11-27T00:35:16.316Z,31.30
2022-11-27T00:38:20.765Z,32.97
2022-11-27T00:41:25.226Z,33.95
2022-11-27T00:44:27.500Z,33.17
2022-11-27T00:47:30.128Z,35.70
2022-11-27T00:50:32.385Z,36.57
2022-11-27T00:53:34.878Z,37.22
2022-11-27T00:56:38.398Z,38.22
2022-11-27T00:59:40.591Z,37.00
2022-11-27T01:02:42.806Z,37.60
2022-11-27T01:05:45.025Z,36.00
2022-11-27T01:08:47.255Z,35.47
2022-11-27T01:11:49.568Z,35.65
2022-11-27T01:14:51.760Z,36.13
2022-11-27T01:17:54.209Z,35.10
2022-11-27T01:20:56.659Z,35.07
2022-11-27T01:23:59.394Z,36.17
2022-11-27T01:27:01.621Z,38.38
2022-11-27T01:30:04.721Z,37.33
2022-11-27T01:33:07.121Z,36.87
2022-11-27T01:36:10.551Z,35.57
2022-11-27T01:39:17.212Z,37.17
2022-11-27T01:42:19.467Z,36.55
2022-11-27T01:45:22.243Z,37.22
2022-11-27T01:48:24.426Z,34.83
2022-11-27T01:51:26.669Z,37.73
2022-11-27T01:54:49.124Z,35.20
2022-11-27T01:57:56.747Z,37.35
2022-11-27T02:00:59.857Z,36.58
2022-11-27T02:04:02.418Z,34.50
2022-11-27T02:07:04.630Z,34.20
2022-11-27T02:10:07.311Z,36.25
2022-11-27T02:13:12.045Z,34.25
2022-11-27T02:16:17.942Z,36.42
2022-11-27T02:19:46.716Z,34.97
2022-11-27T02:22:58.445Z,35.37
2022-11-27T02:26:15.874Z,34.22
2022-11-27T02:29:20.405Z,34.00
2022-11-27T02:32:41.481Z,32.63
2022-11-27T02:35:54.505Z,30.57
2022-11-27T02:39:02.293Z,30.50
2022-11-27T02:42:16.971Z,31.30
2022-11-27T02:45:22.623Z,29.67
2022-11-27T02:48:40.326Z,28.65
2022-11-27T02:51:44.842Z,30.37
2022-11-27T02:54:48.899Z,30.30
2022-11-27T02:57:52.879Z,29.45
2022-11-27T03:00:55.864Z,35.47
2022-11-27T03:03:59.658Z,34.47
2022-11-27T03:07:05.097Z,33.28
2022-11-27T03:10:19.318Z,34.93
2022-11-27T03:13:21.849Z,36.70
2022-11-27T03:16:27.217Z,33.95
2022-11-27T03:19:41.938Z,37.30
2022-11-27T03:22:44.176Z,37.10
2022-11-27T03:25:46.423Z,41.40
2022-11-27T03:28:50.372Z,38.95
2022-11-27T03:31:52.722Z,42.45
2022-11-27T03:34:55.439Z,45.28
2022-11-27T03:37:57.698Z,43.10
2022-11-27T03:41:07.849Z,38.97
2022-11-27T03:44:13.014Z,39.25
2022-11-27T03:47:22.104Z,38.78
2022-11-27T03:50:33.751Z,37.03
2022-11-27T03:53:59.161Z,36.50
2022-11-27T03:57:08.190Z,36.80
2022-11-27T04:00:11.169Z,35.03
2022-11-27T04:03:14.533Z,33.45
2022-11-27T04:06:16.974Z,33.33
2022-11-27T04:09:19.466Z,30.10
2022-11-27T04:12:21.684Z,31.53
2022-11-27T04:15:23.931Z,31.15
2022-11-27T04:18:26.116Z,33.50
2022-11-27T04:21:28.330Z,31.73
2022-11-27T04:24:30.524Z,31.85
2022-11-27T04:27:32.692Z,31.23
2022-11-27T04:30:35.211Z,32.10
2022-11-27T04:33:37.432Z,31.15
2022-11-27T04:36:39.842Z,28.70
2022-11-27T04:39:42.080Z,30.40
2022-11-27T04:42:44.328Z,27.80
2022-11-27T04:45:46.506Z,29.35
2022-11-27T04:48:48.717Z,28.67
2022-11-27T04:51:50.900Z,28.90
2022-11-27T04:54:58.345Z,29.00
2022-11-27T04:58:02.485Z,29.10
2022-11-27T05:01:04.795Z,28.70
2022-11-27T05:04:06.997Z,29.38
2022-11-27T05:07:09.252Z,31.48
2022-11-27T05:10:11.856Z,31.73
2022-11-27T05:13:14.064Z,30.73
2022-11-27T05:16:16.421Z,30.73
2022-11-27T05:19:19.553Z,30.00
2022-11-27T05:22:22.022Z,30.88
2022-11-27T05:25:24.276Z,27.75
2022-11-27T05:28:27.047Z,28.23
2022-11-27T05:31:29.486Z,28.85
2022-11-27T05:34:31.725Z,28.75
2022-11-27T05:37:34.034Z,27.60
2022-11-27T05:40:36.262Z,25.97
2022-11-27T05:43:38.602Z,25.73
2022-11-27T05:46:43.786Z,25.33
2022-11-27T05:49:46.118Z,25.50
2022-11-27T05:52:48.304Z,24.48
2022-11-27T05:55:50.934Z,24.30
2022-11-27T05:58:53.157Z,23.10
2022-11-27T06:01:55.320Z,23.15
2022-11-27T06:04:57.592Z,22.58
2022-11-27T06:07:59.785Z,21.77
2022-11-27T06:11:05.755Z,22.23
2022-11-27T06:14:09.281Z,23.90
2022-11-27T06:17:11.501Z,23.58
2022-11-27T06:20:13.747Z,25.27
2022-11-27T06:23:15.953Z,23.90
2022-11-27T06:26:23.450Z,22.07
2022-11-27T06:29:25.664Z,22.80
2022-11-27T06:32:27.870Z,21.92
2022-11-27T06:35:30.073Z,22.20
2022-11-27T06:38:36.213Z,21.92
2022-11-27T06:41:38.381Z,21.55
2022-11-27T06:44:40.849Z,21.50
2022-11-27T06:47:43.323Z,21.52
2022-11-27T06:50:45.581Z,21.63
2022-11-27T06:53:47.798Z,20.05
2022-11-27T06:56:50.501Z,20.83
2022-11-27T06:59:52.978Z,19.87
2022-11-27T07:02:56.338Z,19.95
2022-11-27T07:06:01.872Z,20.27
2022-11-27T07:09:04.548Z,19.38
2022-11-27T07:12:08.257Z,20.47
2022-11-27T07:15:10.779Z,21.43
2022-11-27T07:18:13.004Z,20.58
2022-11-27T07:21:15.494Z,21.90
2022-11-27T07:24:17.770Z,22.77
2022-11-27T07:27:20.173Z,21.52
2022-11-27T07:30:22.622Z,22.03
2022-11-27T07:33:25.414Z,21.17
2022-11-27T07:36:29.130Z,21.65
2022-11-27T07:40:00.381Z,22.50
2022-11-27T07:42:53.880Z,20.77
2022-11-27T07:45:56.548Z,20.53
2022-11-27T07:49:00.684Z,20.02
2022-11-27T07:52:03.322Z,19.05
2022-11-27T07:55:05.572Z,20.40
2022-11-27T07:58:08.651Z,18.80
2022-11-27T08:01:11.959Z,17.80
2022-11-27T08:04:14.360Z,18.60
2022-11-27T08:07:16.615Z,17.67
2022-11-27T08:10:19.206Z,19.80
2022-11-27T08:13:21.745Z,18.15
2022-11-27T08:16:24.252Z,19.57
2022-11-27T08:19:26.750Z,18.83
2022-11-27T08:22:29.081Z,17.90
2022-11-27T08:25:31.601Z,18.48
2022-11-27T08:28:33.948Z,18.00
2022-11-27T08:31:36.551Z,18.33
2022-11-27T08:34:39.560Z,16.27
2022-11-27T08:37:42.044Z,15.98
2022-11-27T08:40:44.565Z,18.40
2022-11-27T08:43:46.747Z,17.85
2022-11-27T08:46:48.964Z,17.73
2022-11-27T08:49:51.556Z,17.77
2022-11-27T08:52:53.749Z,18.60
2022-11-27T08:55:56.016Z,18.98
2022-11-27T08:58:58.643Z,19.65
2022-11-27T09:02:01.033Z,18.47
2022-11-27T09:05:05.219Z,18.77
2022-11-27T09:08:07.381Z,19.83
2022-11-27T09:11:10.327Z,21.02
2022-11-27T09:14:12.910Z,21.95
2022-11-27T09:17:15.133Z,21.90
2022-11-27T09:20:17.741Z,20.75
2022-11-27T09:23:19.991Z,19.92
2022-11-27T09:26:23.946Z,21.70
2022-11-27T09:29:26.211Z,21.23
2022-11-27T09:32:28.467Z,21.30
2022-11-27T09:35:30.883Z,19.40
2022-11-27T09:38:33.380Z,19.95
2022-11-27T09:41:46.347Z,18.75
2022-11-27T09:44:58.473Z,19.88
2022-11-27T09:48:07.515Z,20.20
2022-11-27T09:51:14.488Z,20.10
2022-11-27T09:54:46.765Z,20.25
2022-11-27T09:58:04.638Z,18.83
2022-11-27T10:01:14.404Z,17.73
2022-11-27T10:04:18.884Z,17.83
2022-11-27T10:07:28.175Z,18.70
2022-11-27T10:10:46.999Z,18.17
2022-11-27T10:13:55.335Z,17.42
2022-11-27T10:17:18.114Z,19.03
2022-11-27T10:20:37.947Z,19.00
2022-11-27T10:23:43.311Z,18.58
2022-11-27T10:26:49.485Z,19.30
2022-11-27T10:29:54.093Z,19.38
2022-11-27T10:32:58.092Z,19.52
2022-11-27T10:36:01.471Z,19.63
2022-11-27T10:39:04.731Z,18.73
2022-11-27T10:42:13.517Z,16.77
2022-11-27T10:45:21.941Z,16.25
2022-11-27T10:48:24.634Z,16.45
2022-11-27T10:51:36.233Z,16.30
2022-11-27T10:54:39.575Z,17.60
2022-11-27T10:58:02.746Z,19.25
2022-11-27T11:01:07.460Z,17.00
2022-11-27T11:04:31.671Z,18.60
2022-11-27T11:07:33.508Z,17.73
2022-11-27T11:10:37.448Z,16.30
2022-11-27T11:13:46.536Z,18.60
2022-11-27T11:16:49.694Z,17.73
2022-11-27T11:19:52.183Z,18.90
2022-11-27T11:22:54.637Z,16.27
2022-11-27T11:25:58.704Z,16.65
2022-11-27T11:29:03.001Z,15.52
2022-11-27T11:32:08.405Z,15.32
2022-11-27T11:35:10.620Z,15.98
2022-11-27T11:38:17.729Z,14.60
2022-11-27T11:41:20.353Z,15.90
2022-11-27T11:44:25.882Z,16.13
2022-11-27T11:47:28.741Z,12.65
2022-11-27T11:50:45.529Z,13.63
2022-11-27T11:53:55.665Z,12.23
2022-11-27T11:57:00.506Z,11.27
2022-11-27T12:00:03.561Z,11.25
2022-11-27T12:03:13.329Z,11.73
2022-11-27T12:06:15.593Z,12.40
2022-11-27T12:09:36.498Z,12.07
2022-11-27T12:12:38.672Z,11.43
2022-11-27T12:15:43.936Z,11.50
2022-11-27T12:18:58.207Z,11.63
2022-11-27T12:22:27.825Z,11.40
2022-11-27T12:25:34.449Z,12.37
2022-11-27T12:28:57.540Z,11.05
2022-11-27T12:32:08.518Z,11.25
2022-11-27T12:35:10.742Z,11.95
2022-11-27T12:38:31.614Z,11.10
2022-11-27T12:41:36.928Z,11.20
2022-11-27T12:45:14.808Z,10.88
2022-11-27T12:48:20.159Z,10.60
2022-11-27T12:51:25.409Z,10.55
2022-11-27T12:54:40.762Z,11.25
2022-11-27T12:57:45.860Z,9.27
2022-11-27T13:00:49.026Z,8.65
2022-11-27T13:03:57.360Z,8.20
2022-11-27T13:07:18.498Z,7.90
2022-11-27T13:10:39.741Z,7.80
2022-11-27T13:13:50.135Z,7.97
2022-11-27T13:17:06.136Z,7.25
2022-11-27T13:20:28.860Z,8.73
2022-11-27T13:23:34.961Z,8.00
2022-11-27T13:26:46.357Z,7.88
2022-11-27T13:30:01.046Z,8.03
2022-11-27T13:33:06.584Z,8.23
2022-11-27T13:36:18.260Z,8.65
2022-11-27T13:39:26.084Z,8.35
2022-11-27T13:42:29.370Z,8.50
2022-11-27T13:45:34.342Z,8.90
2022-11-27T13:48:38.844Z,7.93
2022-11-27T13:51:42.784Z,8.60
2022-11-27T13:54:52.739Z,9.40
2022-11-27T13:57:56.057Z,9.95
2022-11-27T14:00:58.843Z,9.30
2022-11-27T14:04:09.104Z,9.50
2022-11-27T14:07:16.195Z,9.07
2022-11-27T14:10:23.070Z,9.02
2022-11-27T14:13:34.515Z,9.18
2022-11-27T14:16:37.068Z,8.43
2022-11-27T14:19:44.235Z,8.43
2022-11-27T14:23:10.452Z,7.97
2022-11-27T14:26:15.451Z,9.85
2022-11-27T14:29:19.721Z,8.63
2022-11-27T14:32:22.023Z,9.10
2022-11-27T14:35:25.242Z,9.45
2022-11-27T14:38:28.820Z,9.15
2022-11-27T14:41:31.111Z,9.65
2022-11-27T14:44:33.933Z,9.40
2022-11-27T14:47:38.029Z,9.37
2022-11-27T14:50:40.632Z,9.43
2022-11-27T14:53:43.501Z,10.15
2022-11-27T14:56:45.933Z,9.98
2022-11-27T14:59:48.217Z,9.77
2022-11-27T15:02:51.866Z,9.20
2022-11-27T15:05:57.472Z,8.63
2022-11-27T15:09:29.860Z,9.75
2022-11-27T15:12:21.975Z,9.55
2022-11-27T15:15:26.835Z,8.60
2022-11-27T15:18:30.405Z,9.27
2022-11-27T15:21:36.264Z,8.80
2022-11-27T15:24:39.849Z,9.07
2022-11-27T15:27:46.225Z,9.10
2022-11-27T15:30:49.028Z,7.93
2022-11-27T15:34:14.870Z,7.77
2022-11-27T15:37:23.585Z,8.75
2022-11-27T15:40:32.301Z,7.00
2022-11-27T15:43:34.529Z,7.65
2022-11-27T15:46:37.242Z,8.60
2022-11-27T15:49:39.741Z,8.57
2022-11-27T15:52:42.068Z,7.75
2022-11-27T15:55:44.430Z,7.63
2022-11-27T15:58:46.843Z,7.55
2022-11-27T16:01:49.784Z,6.97
2022-11-27T16:04:52.729Z,6.73
2022-11-27T16:07:55.733Z,7.00
2022-11-27T16:11:02.623Z,7.60
2022-11-27T16:14:04.792Z,8.65
2022-11-27T16:17:07.324Z,7.80
2022-11-27T16:20:10.132Z,8.43
2022-11-27T16:23:12.389Z,7.93
2022-11-27T16:26:14.963Z,8.82
2022-11-27T16:29:17.961Z,8.65
2022-11-27T16:32:20.278Z,9.63
2022-11-27T16:35:24.036Z,9.80
2022-11-27T16:38:26.687Z,9.88
2022-11-27T16:41:29.408Z,10.55
2022-11-27T16:44:32.762Z,11.80
2022-11-27T16:47:35.229Z,11.70
2022-11-27T16:50:37.786Z,12.37
2022-11-27T16:53:42.284Z,12.98
2022-11-27T16:56:44.868Z,13.85
2022-11-27T16:59:50.902Z,13.25
2022-11-27T17:02:55.879Z,12.57
2022-11-27T17:05:59.079Z,12.87
2022-11-27T17:09:02.446Z,13.10
2022-11-27T17:12:04.831Z,12.80
2022-11-27T17:15:08.586Z,11.15
2022-11-27T17:18:11.015Z,11.32
2022-11-27T17:21:18.747Z,12.43
2022-11-27T17:24:21.651Z,11.85
2022-11-27T17:27:26.893Z,12.10
2022-11-27T17:30:30.590Z,11.45
2022-11-27T17:33:35.492Z,10.80
2022-11-27T17:36:38.924Z,10.20
2022-11-27T17:39:43.533Z,10.43
2022-11-27T17:42:46.197Z,9.38
2022-11-27T17:45:48.643Z,9.35
2022-11-27T17:48:51.545Z,10.60
2022-11-27T17:51:54.581Z,12.63
2022-11-27T17:54:57.118Z,11.55
2022-11-27T17:58:00.132Z,12.70
2022-11-27T18:01:03.672Z,10.55
2022-11-27T18:04:07.533Z,12.17
2022-11-27T18:07:11.944Z,11.50
2022-11-27T18:10:16.317Z,12.48
2022-11-27T18:13:18.760Z,12.05
2022-11-27T18:16:23.979Z,14.25
2022-11-27T18:19:26.427Z,13.68
2022-11-27T18:22:28.801Z,15.03
2022-11-27T18:25:31.340Z,14.80
2022-11-27T18:28:33.849Z,15.73
2022-11-27T18:31:41.169Z,16.25
2022-11-27T18:34:44.258Z,15.00
2022-11-27T18:37:47.689Z,15.77
2022-11-27T18:40:50.413Z,16.58
2022-11-27T18:43:53.033Z,16.35
2022-11-27T18:46:55.283Z,14.77
2022-11-27T18:50:00.140Z,15.67
2022-11-27T18:53:03.278Z,15.47
2022-11-27T18:56:11.402Z,17.80
2022-11-27T18:59:14.195Z,16.17
2022-11-27T19:02:16.653Z,15.88
2022-11-27T19:05:19.408Z,15.77
2022-11-27T19:08:22.114Z,15.10
2022-11-27T19:11:26.150Z,16.63
2022-11-27T19:14:28.653Z,15.75
2022-11-27T19:17:32.532Z,16.05
2022-11-27T19:20:36.985Z,14.82
2022-11-27T19:23:40.963Z,14.73
2022-11-27T19:26:43.793Z,15.85
2022-11-27T19:29:46.465Z,15.45
2022-11-27T19:32:48.921Z,16.20
2022-11-27T19:35:51.252Z,16.40
2022-11-27T19:38:55.340Z,16.07
2022-11-27T19:41:58.260Z,14.30
2022-11-27T19:45:01.284Z,13.77
2022-11-27T19:48:04.597Z,13.52
2022-11-27T19:51:07.124Z,11.55
2022-11-27T19:54:10.961Z,11.60
2022-11-27T19:57:14.495Z,11.88
2022-11-27T20:00:17.225Z,10.05
2022-11-27T20:03:20.981Z,11.05
2022-11-27T20:06:24.754Z,10.33
2022-11-27T20:09:27.431Z,11.50
2022-11-27T20:12:35.797Z,11.63
2022-11-27T20:15:39.637Z,11.77
2022-11-27T20:18:42.340Z,11.48
2022-11-27T20:21:45.604Z,10.85
2022-11-27T20:25:17.298Z,11.43
2022-11-27T20:28:10.866Z,11.10
2022-11-27T20:31:15.167Z,11.05
2022-11-27T20:34:20.039Z,12.00
2022-11-27T20:37:22.830Z,11.68
2022-11-27T20:40:26.188Z,11.33
2022-11-27T20:43:28.918Z,10.88
2022-11-27T20:46:32.360Z,13.05
2022-11-27T20:49:34.712Z,11.73
2022-11-27T20:52:37.438Z,12.88
2022-11-27T20:55:39.844Z,13.80
2022-11-27T20:58:45.320Z,13.82
2022-11-27T21:01:48.608Z,13.88
2022-11-27T21:04:51.070Z,12.27
2022-11-27T21:07:53.737Z,13.57
2022-11-27T21:10:56.784Z,13.57
2022-11-27T21:13:59.237Z,13.98
2022-11-27T21:17:04.965Z,14.75
2022-11-27T21:20:09.582Z,14.73
2022-11-27T21:23:11.982Z,13.90
2022-11-27T21:26:16.579Z,14.30
2022-11-27T21:29:25.105Z,15.38
2022-11-27T21:32:29.037Z,14.80
2022-11-27T21:35:33.320Z,16.02
2022-11-27T21:38:38.009Z,15.20
2022-11-27T21:41:40.270Z,14.73
2022-11-27T21:44:42.907Z,15.32
2022-11-27T21:47:45.808Z,15.50
2022-11-27T21:50:48.451Z,15.18
2022-11-27T21:53:51.775Z,15.07
2022-11-27T21:56:54.366Z,15.60
2022-11-27T21:59:56.629Z,15.02
2022-11-27T22:02:59.004Z,16.25
2022-11-27T22:06:02.440Z,15.55
2022-11-27T22:09:06.010Z,16.27
2022-11-27T22:12:09.630Z,16.20
2022-11-27T22:15:11.929Z,15.38
2022-11-27T22:18:15.438Z,17.77
2022-11-27T22:21:17.890Z,16.00
2022-11-27T22:24:20.498Z,17.00
2022-11-27T22:27:27.328Z,17.43
2022-11-27T22:30:30.115Z,16.83
2022-11-27T22:33:35.390Z,18.20
2022-11-27T22:36:37.833Z,18.13
2022-11-27T22:39:40.147Z,18.37
2022-11-27T22:42:42.493Z,17.57
2022-11-27T22:45:48.145Z,17.65
2022-11-27T22:48:58.553Z,16.95
2022-11-27T22:52:00.836Z,16.45
2022-11-27T22:55:04.165Z,17.17
2022-11-27T22:58:07.747Z,17.43
2022-11-27T23:01:14.444Z,15.32
2022-11-27T23:04:16.951Z,16.10
2022-11-27T23:07:24.816Z,15.90
2022-11-27T23:10:27.588Z,15.73
2022-11-27T23:13:30.145Z,16.27
2022-11-27T23:16:33.039Z,16.55
2022-11-27T23:19:35.308Z,15.52
2022-11-27T23:22:37.591Z,16.25
2022-11-27T23:25:40.068Z,16.00
2022-11-27T23:28:44.310Z,17.40
2022-11-27T23:31:46.666Z,16.52
2022-11-27T23:34:49.010Z,15.18
2022-11-27T23:37:51.198Z,15.57
2022-11-27T23:40:53.404Z,16.58
2022-11-27T23:43:55.947Z,16.03
2022-11-27T23:46:58.534Z,16.77
2022-11-27T23:50:00.918Z,15.90
2022-11-27T23:53:03.364Z,16.50
2022-11-27T23:56:08.111Z,14.40
2022-11-27T23:59:10.524Z,16.83
